createdAt,value
2018-09-11T00:03:54.648Z,19.77
2018-09-11T00:08:39.006Z,19.79
2018-09-11T00:13:22.327Z,19.93
2018-09-11T00:18:05.706Z,19.94
2018-09-11T00:22:50.165Z,19.93
2018-09-11T00:27:33.710Z,19.77
2018-09-11T00:32:18.526Z,19.87
2018-09-11T00:37:02.024Z,19.80
2018-09-11T00:41:45.572Z,19.69
2018-09-11T00:46:29.133Z,19.57
2018-09-11T00:51:12.601Z,19.75
2018-09-11T00:55:55.768Z,19.85
2018-09-11T01:00:39.376Z,19.71
2018-09-11T01:05:22.762Z,19.87
2018-09-11T01:10:12.533Z,19.76
2018-09-11T01:14:55.881Z,19.68
2018-09-11T01:19:42.472Z,19.67
2018-09-11T01:24:25.938Z,19.72
2018-09-11T01:29:09.454Z,19.66
2018-09-11T01:33:52.725Z,19.69
2018-09-11T01:38:36.280Z,19.64
2018-09-11T01:43:19.763Z,19.57
2018-09-11T01:48:03.200Z,19.58
2018-09-11T01:52:46.713Z,19.65
2018-09-11T01:57:30.017Z,19.58
2018-09-11T02:02:16.678Z,19.39
2018-09-11T02:07:00.135Z,19.37
2018-09-11T02:11:43.567Z,19.53
2018-09-11T02:16:26.642Z,19.40
2018-09-11T02:21:10.152Z,19.54
2018-09-11T02:25:53.606Z,19.52
2018-09-11T02:30:36.916Z,19.66
2018-09-11T02:35:20.362Z,19.58
2018-09-11T02:40:04.781Z,19.57
2018-09-11T02:44:48.335Z,19.74
2018-09-11T02:49:32.824Z,19.54
2018-09-11T02:54:16.318Z,19.58
2018-09-11T02:59:00.882Z,19.46
2018-09-11T03:03:44.303Z,19.28
2018-09-11T03:08:27.950Z,19.21
2018-09-11T03:13:11.249Z,18.86
2018-09-11T03:17:54.627Z,18.70
2018-09-11T03:22:38.009Z,18.69
2018-09-11T03:27:21.416Z,18.98
2018-09-11T03:33:35.187Z,19.01
2018-09-11T03:38:19.771Z,18.90
2018-09-11T03:43:03.119Z,18.91
2018-09-11T03:47:46.561Z,18.88
2018-09-11T03:52:31.035Z,18.81
2018-09-11T03:57:14.427Z,18.61
2018-09-11T04:01:58.726Z,18.75
2018-09-11T04:06:42.210Z,18.95
2018-09-11T04:11:26.868Z,18.83
2018-09-11T04:16:10.285Z,18.84
2018-09-11T04:20:53.861Z,18.77
2018-09-11T04:25:37.429Z,18.85
2018-09-11T04:30:24.591Z,18.95
2018-09-11T04:35:07.903Z,19.04
2018-09-11T04:39:54.950Z,19.27
2018-09-11T04:44:42.093Z,19.26
2018-09-11T04:49:25.792Z,19.15
2018-09-11T04:54:09.262Z,19.13
2018-09-11T04:58:56.208Z,19.21
2018-09-11T05:03:39.617Z,19.31
2018-09-11T05:08:29.113Z,19.58
2018-09-11T05:13:12.516Z,20.00
2018-09-11T05:18:02.249Z,20.33
2018-09-11T05:22:46.303Z,19.70
2018-09-11T05:27:30.758Z,19.84
2018-09-11T05:32:18.503Z,20.14
2018-09-11T05:37:01.865Z,20.45
2018-09-11T05:41:48.648Z,20.44
2018-09-11T05:46:32.113Z,20.65
2018-09-11T05:51:19.280Z,21.14
2018-09-11T05:56:02.712Z,20.93
2018-09-11T06:00:50.002Z,20.71
2018-09-11T06:05:33.389Z,20.87
2018-09-11T06:10:19.927Z,20.72
2018-09-11T06:15:03.254Z,20.39
2018-09-11T06:19:49.853Z,20.55
2018-09-11T06:24:38.669Z,20.78
2018-09-11T06:29:22.536Z,21.09
2018-09-11T06:34:06.049Z,21.34
2018-09-11T06:38:49.648Z,21.53
2018-09-11T06:43:33.085Z,21.61
2018-09-11T06:48:20.097Z,21.70
2018-09-11T06:53:03.382Z,21.90
2018-09-11T06:57:47.087Z,22.07
2018-09-11T07:02:30.449Z,22.27
2018-09-11T07:07:13.880Z,22.41
2018-09-11T07:11:57.474Z,22.55
2018-09-11T07:16:40.896Z,22.64
2018-09-11T07:21:25.225Z,22.75
2018-09-11T07:26:09.122Z,22.92
2018-09-11T07:30:58.446Z,23.06
2018-09-11T07:35:41.987Z,22.91
2018-09-11T07:40:29.062Z,23.10
2018-09-11T07:45:12.573Z,23.20
2018-09-11T07:50:00.386Z,23.40
2018-09-11T07:54:43.946Z,23.31
2018-09-11T07:59:31.309Z,23.54
2018-09-11T08:04:14.841Z,23.72
2018-09-11T08:08:59.185Z,23.86
2018-09-11T08:13:44.033Z,23.99
2018-09-11T08:18:27.652Z,24.13
2018-09-11T08:23:11.237Z,24.25
2018-09-11T08:27:54.716Z,24.49
2018-09-11T08:32:38.209Z,24.51
2018-09-11T08:37:25.366Z,24.66
2018-09-11T08:42:08.894Z,24.79
2018-09-11T08:46:52.443Z,24.90
2018-09-11T08:51:40.576Z,24.54
2018-09-11T08:56:23.981Z,24.40
2018-09-11T09:01:08.688Z,24.34
2018-09-11T09:05:52.130Z,24.58
2018-09-11T09:10:36.757Z,24.60
2018-09-11T09:15:20.598Z,24.98
2018-09-11T09:20:10.041Z,25.12
2018-09-11T09:24:53.991Z,25.27
2018-09-11T09:29:37.445Z,24.88
2018-09-11T09:34:20.813Z,25.22
2018-09-11T09:39:05.881Z,25.33
2018-09-11T09:43:49.363Z,25.26
2018-09-11T09:48:36.468Z,25.08
2018-09-11T09:53:19.940Z,24.79
2018-09-11T09:58:04.496Z,24.72
2018-09-11T10:02:47.977Z,24.72
2018-09-11T10:07:35.164Z,24.72
2018-09-11T10:12:19.473Z,24.78
2018-09-11T10:17:03.927Z,24.94
2018-09-11T10:21:47.451Z,25.00
2018-09-11T10:26:30.869Z,25.02
2018-09-11T10:31:14.676Z,25.33
2018-09-11T10:35:58.060Z,25.41
2018-09-11T10:40:42.465Z,25.55
2018-09-11T10:45:25.757Z,25.62
2018-09-11T10:50:14.677Z,25.80
2018-09-11T10:54:58.156Z,25.72
2018-09-11T10:59:44.923Z,25.97
2018-09-11T11:04:28.380Z,26.00
2018-09-11T11:09:15.561Z,25.64
2018-09-11T11:13:58.962Z,25.67
2018-09-11T11:18:46.257Z,25.76
2018-09-11T11:23:29.711Z,25.88
2018-09-11T11:28:16.339Z,26.42
2018-09-11T11:32:59.480Z,26.62
2018-09-11T11:37:42.959Z,26.64
2018-09-11T11:42:26.515Z,26.07
2018-09-11T11:47:13.111Z,26.28
2018-09-11T11:51:56.506Z,25.99
2018-09-11T11:56:39.963Z,26.00
2018-09-11T12:01:23.373Z,26.56
2018-09-11T12:06:06.339Z,26.80
2018-09-11T12:10:53.413Z,26.26
2018-09-11T12:15:36.981Z,26.15
2018-09-11T12:20:21.223Z,26.28
2018-09-11T12:25:04.510Z,26.36
2018-09-11T12:29:51.153Z,26.11
2018-09-11T12:34:35.256Z,25.95
2018-09-11T12:39:22.168Z,25.85
2018-09-11T12:44:08.489Z,25.77
2018-09-11T12:48:51.899Z,25.76
2018-09-11T12:53:35.589Z,25.76
2018-09-11T12:58:19.357Z,26.14
2018-09-11T13:03:02.810Z,25.95
2018-09-11T13:07:46.368Z,25.73
2018-09-11T13:12:29.845Z,25.69
2018-09-11T13:17:17.306Z,25.77
2018-09-11T13:22:00.779Z,26.04
2018-09-11T13:26:47.860Z,26.61
2018-09-11T13:31:31.382Z,26.57
2018-09-11T13:36:14.921Z,26.12
2018-09-11T13:41:01.808Z,25.70
2018-09-11T13:45:45.252Z,25.40
2018-09-11T13:50:29.815Z,25.10
2018-09-11T13:55:13.330Z,24.84
2018-09-11T14:00:00.360Z,24.72
2018-09-11T14:04:43.700Z,24.62
2018-09-11T14:09:27.452Z,24.48
2018-09-11T14:14:11.747Z,24.41
2018-09-11T14:18:55.623Z,24.25
2018-09-11T14:23:39.140Z,24.25
2018-09-11T14:28:23.024Z,24.11
2018-09-11T14:33:06.414Z,24.13
2018-09-11T14:37:53.239Z,24.01
2018-09-11T14:42:36.752Z,24.04
2018-09-11T14:47:20.522Z,23.95
2018-09-11T14:52:04.152Z,23.89
2018-09-11T14:56:51.228Z,23.86
2018-09-11T15:01:34.711Z,23.76
2018-09-11T15:06:18.186Z,23.57
2018-09-11T15:11:01.681Z,23.47
2018-09-11T15:15:45.537Z,23.45
2018-09-11T15:20:32.082Z,23.55
2018-09-11T15:25:15.658Z,23.62
2018-09-11T15:30:00.462Z,23.67
2018-09-11T15:34:43.831Z,23.68
2018-09-11T15:39:31.306Z,23.67
2018-09-11T15:44:14.735Z,23.67
2018-09-11T15:48:59.249Z,23.56
2018-09-11T15:53:42.720Z,23.48
2018-09-11T15:58:29.181Z,23.40
2018-09-11T16:03:12.734Z,23.31
2018-09-11T16:07:56.420Z,23.22
2018-09-11T16:12:40.572Z,23.08
2018-09-11T16:17:24.349Z,23.07
2018-09-11T16:22:07.808Z,22.92
2018-09-11T16:26:54.907Z,22.97
2018-09-11T16:31:38.425Z,23.02
2018-09-11T16:36:21.967Z,22.98
2018-09-11T16:41:05.675Z,23.14
2018-09-11T16:45:49.019Z,23.25
2018-09-11T16:50:33.676Z,23.17
2018-09-11T16:55:17.230Z,23.07
2018-09-11T17:00:01.007Z,23.00
2018-09-11T17:04:44.503Z,22.72
2018-09-11T17:09:29.035Z,22.82
2018-09-11T17:14:12.622Z,22.97
2018-09-11T17:18:56.257Z,22.70
2018-09-11T17:23:39.783Z,22.56
2018-09-11T17:28:24.068Z,22.56
2018-09-11T17:33:07.399Z,22.49
2018-09-11T17:37:51.012Z,22.18
2018-09-11T17:42:34.555Z,21.96
2018-09-11T17:47:22.115Z,21.90
2018-09-11T17:52:05.652Z,22.04
2018-09-11T17:56:50.162Z,22.24
2018-09-11T18:01:33.829Z,22.33
2018-09-11T18:06:21.420Z,22.31
2018-09-11T18:11:04.876Z,22.30
2018-09-11T18:15:48.413Z,22.08
2018-09-11T18:20:32.048Z,22.10
2018-09-11T18:25:15.221Z,22.28
2018-09-11T18:30:00.115Z,22.37
2018-09-11T18:34:44.283Z,22.47
2018-09-11T18:39:28.897Z,22.52
2018-09-11T18:44:12.401Z,22.55
2018-09-11T18:48:57.203Z,22.56
2018-09-11T18:53:40.654Z,22.40
2018-09-11T18:58:24.290Z,22.36
2018-09-11T19:03:08.810Z,22.29
2018-09-11T19:07:56.764Z,22.18
2018-09-11T19:12:41.273Z,21.86
2018-09-11T19:17:25.805Z,21.78
2018-09-11T19:22:09.096Z,21.75
2018-09-11T19:26:56.319Z,21.68
2018-09-11T19:31:39.816Z,21.72
2018-09-11T19:36:24.458Z,21.78
2018-09-11T19:41:08.756Z,21.81
2018-09-11T19:45:52.614Z,21.73
2018-09-11T19:50:36.336Z,21.57
2018-09-11T19:55:19.896Z,21.53
2018-09-11T20:00:10.599Z,21.38
2018-09-11T20:04:54.032Z,21.46
2018-09-11T20:09:41.462Z,21.31
2018-09-11T20:14:24.892Z,21.41
2018-09-11T20:19:08.689Z,21.51
2018-09-11T20:23:52.216Z,21.64
2018-09-11T20:28:38.843Z,21.50
2018-09-11T20:33:22.508Z,21.13
2018-09-11T20:38:06.060Z,21.11
2018-09-11T20:42:54.616Z,20.97
2018-09-11T20:47:39.368Z,20.90
2018-09-11T20:52:22.848Z,20.83
2018-09-11T20:57:09.470Z,20.81
2018-09-11T21:01:52.805Z,20.68
2018-09-11T21:06:36.309Z,20.60
2018-09-11T21:11:19.829Z,20.63
2018-09-11T21:16:04.560Z,20.75
2018-09-11T21:20:48.069Z,20.68
2018-09-11T21:25:31.614Z,20.60
2018-09-11T21:30:15.562Z,20.57
2018-09-11T21:34:59.179Z,20.27
2018-09-11T21:39:42.611Z,20.26
2018-09-11T21:44:26.162Z,20.13
2018-09-11T21:49:16.702Z,20.13
2018-09-11T21:54:00.489Z,20.10
2018-09-11T21:58:44.244Z,20.19
2018-09-11T22:03:27.791Z,20.28
2018-09-11T22:08:11.347Z,20.45
2018-09-11T22:12:54.890Z,20.37
2018-09-11T22:17:39.609Z,20.29
2018-09-11T22:22:22.832Z,20.69
2018-09-11T22:27:06.400Z,20.80
2018-09-11T22:31:49.865Z,20.85
2018-09-11T22:36:33.306Z,20.63
2018-09-11T22:41:16.630Z,20.74
2018-09-11T22:46:01.194Z,20.62
2018-09-11T22:50:44.492Z,20.64
2018-09-11T22:55:28.232Z,20.51
2018-09-11T23:00:11.570Z,20.45
2018-09-11T23:04:55.053Z,20.23
2018-09-11T23:09:38.432Z,20.14
2018-09-11T23:14:21.963Z,20.10
2018-09-11T23:19:08.983Z,20.05
2018-09-11T23:23:52.535Z,20.07
2018-09-11T23:28:36.034Z,19.92
2018-09-11T23:33:19.491Z,19.85
2018-09-11T23:38:04.166Z,19.86
2018-09-11T23:42:47.612Z,19.96
2018-09-11T23:47:31.260Z,20.24
2018-09-11T23:52:14.787Z,20.48
2018-09-11T23:57:01.580Z,20.48
